sensor_id;sensor_type;location;lat;lon;timestamp;P1;durP1;ratioP1;P2;durP2;ratioP2
51438;SDS011;38816;51.142;-0.974;2022-11-23T00:01:30;12.63;;;3.30;;
51438;SDS011;38816;51.142;-0.974;2022-11-23T00:04:01;17.42;;;3.53;;
51438;SDS011;38816;51.142;-0.974;2022-11-23T00:06:31;9.45;;;3.30;;
51438;SDS011;38816;51.142;-0.974;2022-11-23T00:08:57;12.07;;;3.10;;
51438;SDS011;38816;51.142;-0.974;2022-11-23T00:11:23;11.82;;;2.83;;
51438;SDS011;38816;51.142;-0.974;2022-11-23T00:13:50;9.88;;;2.90;;
51438;SDS011;38816;51.142;-0.974;2022-11-23T00:16:17;10.02;;;2.60;;
51438;SDS011;38816;51.142;-0.974;2022-11-23T00:18:44;15.45;;;2.55;;
51438;SDS011;38816;51.142;-0.974;2022-11-23T00:21:16;9.88;;;2.70;;
51438;SDS011;38816;51.142;-0.974;2022-11-23T00:23:42;11.45;;;2.58;;
51438;SDS011;38816;51.142;-0.974;2022-11-23T00:26:09;17.10;;;2.80;;
51438;SDS011;38816;51.142;-0.974;2022-11-23T00:28:35;14.15;;;2.78;;
51438;SDS011;38816;51.142;-0.974;2022-11-23T00:31:14;7.07;;;2.80;;
51438;SDS011;38816;51.142;-0.974;2022-11-23T00:33:41;9.57;;;2.63;;
51438;SDS011;38816;51.142;-0.974;2022-11-23T00:36:09;17.20;;;3.17;;
51438;SDS011;38816;51.142;-0.974;2022-11-23T00:38:36;7.30;;;2.53;;
51438;SDS011;38816;51.142;-0.974;2022-11-23T00:41:03;7.95;;;2.70;;
51438;SDS011;38816;51.142;-0.974;2022-11-23T00:43:30;14.25;;;2.63;;
51438;SDS011;38816;51.142;-0.974;2022-11-23T00:48:30;14.75;;;2.55;;
51438;SDS011;38816;51.142;-0.974;2022-11-23T00:50:56;11.25;;;2.50;;
51438;SDS011;38816;51.142;-0.974;2022-11-23T00:53:21;11.93;;;2.55;;
51438;SDS011;38816;51.142;-0.974;2022-11-23T00:55:53;20.17;;;3.13;;
51438;SDS011;38816;51.142;-0.974;2022-11-23T00:58:20;12.93;;;2.92;;
51438;SDS011;38816;51.142;-0.974;2022-11-23T01:00:45;9.80;;;2.47;;
51438;SDS011;38816;51.142;-0.974;2022-11-23T01:03:11;13.88;;;2.55;;
51438;SDS011;38816;51.142;-0.974;2022-11-23T01:05:36;11.20;;;2.50;;
51438;SDS011;38816;51.142;-0.974;2022-11-23T01:08:03;25.70;;;3.55;;
51438;SDS011;38816;51.142;-0.974;2022-11-23T01:10:29;15.43;;;2.33;;
51438;SDS011;38816;51.142;-0.974;2022-11-23T01:12:55;14.27;;;2.30;;
51438;SDS011;38816;51.142;-0.974;2022-11-23T01:15:21;21.67;;;2.65;;
51438;SDS011;38816;51.142;-0.974;2022-11-23T01:17:47;11.00;;;2.80;;
51438;SDS011;38816;51.142;-0.974;2022-11-23T01:20:12;9.60;;;2.38;;
51438;SDS011;38816;51.142;-0.974;2022-11-23T01:22:37;10.50;;;2.25;;
51438;SDS011;38816;51.142;-0.974;2022-11-23T01:25:03;9.52;;;2.33;;
51438;SDS011;38816;51.142;-0.974;2022-11-23T01:27:29;10.48;;;2.00;;
51438;SDS011;38816;51.142;-0.974;2022-11-23T01:29:54;10.50;;;2.20;;
51438;SDS011;38816;51.142;-0.974;2022-11-23T01:32:19;7.28;;;1.80;;
51438;SDS011;38816;51.142;-0.974;2022-11-23T01:34:45;13.27;;;2.10;;
51438;SDS011;38816;51.142;-0.974;2022-11-23T01:37:10;16.17;;;2.33;;
51438;SDS011;38816;51.142;-0.974;2022-11-23T01:39:35;16.30;;;2.38;;
51438;SDS011;38816;51.142;-0.974;2022-11-23T01:42:01;17.42;;;2.30;;
51438;SDS011;38816;51.142;-0.974;2022-11-23T01:44:31;9.77;;;2.05;;
51438;SDS011;38816;51.142;-0.974;2022-11-23T01:47:02;6.65;;;2.10;;
51438;SDS011;38816;51.142;-0.974;2022-11-23T01:49:32;11.45;;;2.05;;
51438;SDS011;38816;51.142;-0.974;2022-11-23T01:52:03;9.57;;;2.20;;
51438;SDS011;38816;51.142;-0.974;2022-11-23T01:54:35;15.18;;;2.13;;
51438;SDS011;38816;51.142;-0.974;2022-11-23T01:57:27;12.95;;;2.15;;
51438;SDS011;38816;51.142;-0.974;2022-11-23T01:59:57;17.13;;;2.22;;
51438;SDS011;38816;51.142;-0.974;2022-11-23T02:02:22;8.52;;;2.20;;
51438;SDS011;38816;51.142;-0.974;2022-11-23T02:04:51;14.20;;;2.40;;
51438;SDS011;38816;51.142;-0.974;2022-11-23T02:07:19;9.70;;;2.20;;
51438;SDS011;38816;51.142;-0.974;2022-11-23T02:09:45;13.68;;;2.50;;
51438;SDS011;38816;51.142;-0.974;2022-11-23T02:12:14;15.07;;;2.17;;
51438;SDS011;38816;51.142;-0.974;2022-11-23T02:14:40;21.77;;;2.47;;
51438;SDS011;38816;51.142;-0.974;2022-11-23T02:17:06;27.30;;;2.50;;
51438;SDS011;38816;51.142;-0.974;2022-11-23T02:22:00;24.90;;;2.45;;
51438;SDS011;38816;51.142;-0.974;2022-11-23T02:24:27;19.40;;;2.42;;
51438;SDS011;38816;51.142;-0.974;2022-11-23T02:26:59;8.55;;;2.03;;
51438;SDS011;38816;51.142;-0.974;2022-11-23T02:29:26;13.57;;;2.33;;
51438;SDS011;38816;51.142;-0.974;2022-11-23T02:31:52;15.70;;;2.35;;
51438;SDS011;38816;51.142;-0.974;2022-11-23T02:34:18;15.65;;;1.77;;
51438;SDS011;38816;51.142;-0.974;2022-11-23T02:36:45;10.88;;;2.00;;
51438;SDS011;38816;51.142;-0.974;2022-11-23T02:39:29;25.38;;;2.30;;
51438;SDS011;38816;51.142;-0.974;2022-11-23T02:41:58;9.70;;;2.17;;
51438;SDS011;38816;51.142;-0.974;2022-11-23T02:47:06;18.80;;;1.77;;
51438;SDS011;38816;51.142;-0.974;2022-11-23T02:49:32;15.30;;;1.50;;
51438;SDS011;38816;51.142;-0.974;2022-11-23T02:51:58;14.25;;;2.13;;
51438;SDS011;38816;51.142;-0.974;2022-11-23T02:54:24;11.07;;;1.70;;
51438;SDS011;38816;51.142;-0.974;2022-11-23T02:56:49;20.33;;;2.00;;
51438;SDS011;38816;51.142;-0.974;2022-11-23T02:59:15;15.68;;;1.90;;
51438;SDS011;38816;51.142;-0.974;2022-11-23T03:01:40;16.92;;;2.00;;
51438;SDS011;38816;51.142;-0.974;2022-11-23T03:04:06;20.20;;;2.42;;
51438;SDS011;38816;51.142;-0.974;2022-11-23T03:06:32;23.90;;;2.50;;
51438;SDS011;38816;51.142;-0.974;2022-11-23T03:08:57;12.57;;;2.40;;
51438;SDS011;38816;51.142;-0.974;2022-11-23T03:11:23;16.40;;;2.13;;
51438;SDS011;38816;51.142;-0.974;2022-11-23T03:13:48;13.18;;;2.90;;
51438;SDS011;38816;51.142;-0.974;2022-11-23T03:16:13;14.63;;;3.55;;
51438;SDS011;38816;51.142;-0.974;2022-11-23T03:18:40;24.52;;;2.83;;
51438;SDS011;38816;51.142;-0.974;2022-11-23T03:21:06;17.30;;;2.63;;
51438;SDS011;38816;51.142;-0.974;2022-11-23T03:23:34;20.60;;;2.90;;
51438;SDS011;38816;51.142;-0.974;2022-11-23T03:26:00;19.15;;;2.60;;
51438;SDS011;38816;51.142;-0.974;2022-11-23T03:28:26;10.20;;;2.10;;
51438;SDS011;38816;51.142;-0.974;2022-11-23T03:30:52;12.65;;;2.63;;
51438;SDS011;38816;51.142;-0.974;2022-11-23T03:33:17;33.67;;;2.45;;
51438;SDS011;38816;51.142;-0.974;2022-11-23T03:35:43;14.82;;;2.17;;
51438;SDS011;38816;51.142;-0.974;2022-11-23T03:38:09;9.60;;;2.03;;
51438;SDS011;38816;51.142;-0.974;2022-11-23T03:40:34;13.95;;;2.85;;
51438;SDS011;38816;51.142;-0.974;2022-11-23T03:42:59;13.75;;;2.40;;
51438;SDS011;38816;51.142;-0.974;2022-11-23T03:45:25;15.88;;;2.58;;
51438;SDS011;38816;51.142;-0.974;2022-11-23T03:47:50;8.57;;;2.55;;
51438;SDS011;38816;51.142;-0.974;2022-11-23T03:50:15;20.48;;;2.63;;
51438;SDS011;38816;51.142;-0.974;2022-11-23T03:52:41;19.58;;;2.45;;
51438;SDS011;38816;51.142;-0.974;2022-11-23T03:55:07;16.27;;;2.03;;
51438;SDS011;38816;51.142;-0.974;2022-11-23T03:57:32;10.65;;;2.15;;
51438;SDS011;38816;51.142;-0.974;2022-11-23T03:59:58;16.23;;;2.10;;
51438;SDS011;38816;51.142;-0.974;2022-11-23T04:02:23;24.02;;;2.70;;
51438;SDS011;38816;51.142;-0.974;2022-11-23T04:04:48;17.10;;;2.72;;
51438;SDS011;38816;51.142;-0.974;2022-11-23T04:07:14;23.77;;;2.85;;
51438;SDS011;38816;51.142;-0.974;2022-11-23T04:09:39;16.70;;;2.75;;
51438;SDS011;38816;51.142;-0.974;2022-11-23T04:12:05;14.57;;;2.13;;
51438;SDS011;38816;51.142;-0.974;2022-11-23T04:14:31;35.92;;;2.65;;
51438;SDS011;38816;51.142;-0.974;2022-11-23T04:16:56;18.70;;;2.63;;
51438;SDS011;38816;51.142;-0.974;2022-11-23T04:19:21;23.58;;;2.55;;
51438;SDS011;38816;51.142;-0.974;2022-11-23T04:21:47;29.45;;;2.33;;
51438;SDS011;38816;51.142;-0.974;2022-11-23T04:24:12;19.67;;;1.80;;
51438;SDS011;38816;51.142;-0.974;2022-11-23T04:26:38;19.80;;;2.45;;
51438;SDS011;38816;51.142;-0.974;2022-11-23T04:29:04;26.33;;;2.10;;
51438;SDS011;38816;51.142;-0.974;2022-11-23T04:31:30;20.77;;;2.67;;
51438;SDS011;38816;51.142;-0.974;2022-11-23T04:33:55;24.38;;;3.10;;
51438;SDS011;38816;51.142;-0.974;2022-11-23T04:36:21;23.73;;;2.60;;
51438;SDS011;38816;51.142;-0.974;2022-11-23T04:38:46;33.97;;;3.28;;
51438;SDS011;38816;51.142;-0.974;2022-11-23T04:41:12;25.33;;;2.45;;
51438;SDS011;38816;51.142;-0.974;2022-11-23T04:43:37;21.95;;;2.40;;
51438;SDS011;38816;51.142;-0.974;2022-11-23T04:46:02;26.08;;;2.17;;
51438;SDS011;38816;51.142;-0.974;2022-11-23T04:48:28;30.42;;;3.47;;
51438;SDS011;38816;51.142;-0.974;2022-11-23T04:50:53;25.95;;;2.40;;
51438;SDS011;38816;51.142;-0.974;2022-11-23T04:53:19;47.10;;;3.25;;
51438;SDS011;38816;51.142;-0.974;2022-11-23T04:55:45;31.33;;;3.13;;
51438;SDS011;38816;51.142;-0.974;2022-11-23T04:58:11;43.72;;;3.25;;
51438;SDS011;38816;51.142;-0.974;2022-11-23T05:03:54;44.13;;;3.00;;
51438;SDS011;38816;51.142;-0.974;2022-11-23T05:06:20;35.88;;;2.75;;
51438;SDS011;38816;51.142;-0.974;2022-11-23T05:08:46;31.27;;;2.38;;
51438;SDS011;38816;51.142;-0.974;2022-11-23T05:11:11;30.17;;;2.33;;
51438;SDS011;38816;51.142;-0.974;2022-11-23T05:13:37;20.02;;;2.22;;
51438;SDS011;38816;51.142;-0.974;2022-11-23T05:16:02;26.33;;;2.65;;
51438;SDS011;38816;51.142;-0.974;2022-11-23T05:18:28;35.47;;;2.47;;
51438;SDS011;38816;51.142;-0.974;2022-11-23T05:20:53;41.88;;;2.63;;
51438;SDS011;38816;51.142;-0.974;2022-11-23T05:23:19;21.85;;;2.95;;
51438;SDS011;38816;51.142;-0.974;2022-11-23T05:25:44;31.63;;;2.55;;
51438;SDS011;38816;51.142;-0.974;2022-11-23T05:28:13;33.28;;;2.28;;
51438;SDS011;38816;51.142;-0.974;2022-11-23T05:30:41;32.28;;;2.47;;
51438;SDS011;38816;51.142;-0.974;2022-11-23T05:33:06;32.30;;;2.50;;
51438;SDS011;38816;51.142;-0.974;2022-11-23T05:35:32;34.42;;;2.42;;
51438;SDS011;38816;51.142;-0.974;2022-11-23T05:37:57;33.70;;;2.53;;
51438;SDS011;38816;51.142;-0.974;2022-11-23T05:40:22;29.45;;;2.80;;
51438;SDS011;38816;51.142;-0.974;2022-11-23T05:42:52;34.95;;;2.40;;
51438;SDS011;38816;51.142;-0.974;2022-11-23T05:45:18;24.30;;;2.20;;
51438;SDS011;38816;51.142;-0.974;2022-11-23T05:47:48;15.00;;;1.90;;
51438;SDS011;38816;51.142;-0.974;2022-11-23T05:50:14;19.95;;;2.10;;
51438;SDS011;38816;51.142;-0.974;2022-11-23T05:52:40;19.05;;;2.10;;
51438;SDS011;38816;51.142;-0.974;2022-11-23T05:55:05;27.70;;;3.45;;
51438;SDS011;38816;51.142;-0.974;2022-11-23T05:57:31;17.50;;;1.90;;
51438;SDS011;38816;51.142;-0.974;2022-11-23T05:59:56;23.70;;;1.85;;
51438;SDS011;38816;51.142;-0.974;2022-11-23T06:02:21;21.77;;;1.85;;
51438;SDS011;38816;51.142;-0.974;2022-11-23T06:04:47;29.77;;;1.73;;
51438;SDS011;38816;51.142;-0.974;2022-11-23T06:07:12;20.08;;;2.10;;
51438;SDS011;38816;51.142;-0.974;2022-11-23T06:09:37;13.82;;;1.70;;
51438;SDS011;38816;51.142;-0.974;2022-11-23T06:12:03;22.95;;;2.20;;
51438;SDS011;38816;51.142;-0.974;2022-11-23T06:14:29;18.83;;;1.83;;
51438;SDS011;38816;51.142;-0.974;2022-11-23T06:16:54;20.23;;;2.03;;
51438;SDS011;38816;51.142;-0.974;2022-11-23T06:19:20;22.92;;;2.00;;
51438;SDS011;38816;51.142;-0.974;2022-11-23T06:21:46;22.05;;;1.70;;
51438;SDS011;38816;51.142;-0.974;2022-11-23T06:24:11;28.35;;;2.10;;
51438;SDS011;38816;51.142;-0.974;2022-11-23T06:26:38;19.90;;;1.67;;
51438;SDS011;38816;51.142;-0.974;2022-11-23T06:29:03;21.83;;;1.67;;
51438;SDS011;38816;51.142;-0.974;2022-11-23T06:31:29;11.50;;;2.03;;
51438;SDS011;38816;51.142;-0.974;2022-11-23T06:33:55;17.17;;;1.90;;
51438;SDS011;38816;51.142;-0.974;2022-11-23T06:36:20;10.95;;;1.50;;
51438;SDS011;38816;51.142;-0.974;2022-11-23T06:38:46;11.93;;;1.67;;
51438;SDS011;38816;51.142;-0.974;2022-11-23T06:41:14;8.52;;;1.38;;
51438;SDS011;38816;51.142;-0.974;2022-11-23T06:43:39;6.85;;;1.67;;
51438;SDS011;38816;51.142;-0.974;2022-11-23T06:46:05;7.18;;;1.48;;
51438;SDS011;38816;51.142;-0.974;2022-11-23T06:48:31;10.60;;;1.10;;
51438;SDS011;38816;51.142;-0.974;2022-11-23T06:50:58;7.80;;;1.00;;
51438;SDS011;38816;51.142;-0.974;2022-11-23T06:53:24;7.43;;;0.93;;
51438;SDS011;38816;51.142;-0.974;2022-11-23T06:55:50;9.82;;;1.00;;
51438;SDS011;38816;51.142;-0.974;2022-11-23T06:58:16;6.38;;;1.27;;
51438;SDS011;38816;51.142;-0.974;2022-11-23T07:00:41;4.05;;;0.80;;
51438;SDS011;38816;51.142;-0.974;2022-11-23T07:03:10;3.88;;;0.98;;
51438;SDS011;38816;51.142;-0.974;2022-11-23T07:05:43;7.55;;;1.00;;
51438;SDS011;38816;51.142;-0.974;2022-11-23T07:08:09;8.00;;;1.50;;
51438;SDS011;38816;51.142;-0.974;2022-11-23T07:10:35;8.25;;;1.30;;
51438;SDS011;38816;51.142;-0.974;2022-11-23T07:13:04;5.20;;;1.05;;
51438;SDS011;38816;51.142;-0.974;2022-11-23T07:15:30;4.40;;;0.95;;
51438;SDS011;38816;51.142;-0.974;2022-11-23T07:17:56;10.65;;;1.30;;
51438;SDS011;38816;51.142;-0.974;2022-11-23T07:20:21;6.28;;;1.13;;
51438;SDS011;38816;51.142;-0.974;2022-11-23T07:22:47;0.82;;;0.73;;
51438;SDS011;38816;51.142;-0.974;2022-11-23T07:25:12;4.93;;;1.08;;
51438;SDS011;38816;51.142;-0.974;2022-11-23T07:27:43;6.53;;;1.27;;
51438;SDS011;38816;51.142;-0.974;2022-11-23T07:30:08;8.25;;;1.13;;
51438;SDS011;38816;51.142;-0.974;2022-11-23T07:32:34;7.35;;;1.38;;
51438;SDS011;38816;51.142;-0.974;2022-11-23T07:35:00;16.80;;;1.73;;
51438;SDS011;38816;51.142;-0.974;2022-11-23T07:37:25;15.90;;;1.48;;
51438;SDS011;38816;51.142;-0.974;2022-11-23T07:39:50;16.10;;;1.80;;
51438;SDS011;38816;51.142;-0.974;2022-11-23T07:42:17;14.93;;;2.00;;
51438;SDS011;38816;51.142;-0.974;2022-11-23T07:44:43;18.50;;;1.80;;
51438;SDS011;38816;51.142;-0.974;2022-11-23T07:47:09;11.75;;;1.70;;
51438;SDS011;38816;51.142;-0.974;2022-11-23T07:49:34;11.48;;;2.10;;
51438;SDS011;38816;51.142;-0.974;2022-11-23T07:51:59;9.73;;;1.50;;
51438;SDS011;38816;51.142;-0.974;2022-11-23T07:54:25;6.90;;;1.00;;
51438;SDS011;38816;51.142;-0.974;2022-11-23T07:56:50;8.10;;;0.70;;
51438;SDS011;38816;51.142;-0.974;2022-11-23T07:59:16;7.57;;;1.02;;
51438;SDS011;38816;51.142;-0.974;2022-11-23T08:01:41;4.75;;;0.50;;
51438;SDS011;38816;51.142;-0.974;2022-11-23T08:04:06;9.57;;;1.05;;
51438;SDS011;38816;51.142;-0.974;2022-11-23T08:06:32;5.07;;;0.68;;
51438;SDS011;38816;51.142;-0.974;2022-11-23T08:08:57;9.35;;;1.08;;
51438;SDS011;38816;51.142;-0.974;2022-11-23T08:11:23;11.90;;;1.20;;
51438;SDS011;38816;51.142;-0.974;2022-11-23T08:13:49;16.40;;;1.40;;
51438;SDS011;38816;51.142;-0.974;2022-11-23T08:16:14;17.90;;;1.48;;
51438;SDS011;38816;51.142;-0.974;2022-11-23T08:18:39;21.83;;;2.08;;
51438;SDS011;38816;51.142;-0.974;2022-11-23T08:21:05;31.42;;;2.50;;
51438;SDS011;38816;51.142;-0.974;2022-11-23T08:23:30;16.00;;;2.30;;
51438;SDS011;38816;51.142;-0.974;2022-11-23T08:25:56;23.23;;;2.10;;
51438;SDS011;38816;51.142;-0.974;2022-11-23T08:28:22;8.73;;;1.33;;
51438;SDS011;38816;51.142;-0.974;2022-11-23T08:30:47;17.27;;;1.67;;
51438;SDS011;38816;51.142;-0.974;2022-11-23T08:33:14;16.25;;;2.40;;
51438;SDS011;38816;51.142;-0.974;2022-11-23T08:35:40;22.10;;;1.73;;
51438;SDS011;38816;51.142;-0.974;2022-11-23T08:38:07;13.93;;;1.63;;
51438;SDS011;38816;51.142;-0.974;2022-11-23T08:40:33;18.08;;;1.48;;
51438;SDS011;38816;51.142;-0.974;2022-11-23T08:43:00;18.85;;;1.60;;
51438;SDS011;38816;51.142;-0.974;2022-11-23T08:45:25;16.80;;;1.90;;
51438;SDS011;38816;51.142;-0.974;2022-11-23T08:47:51;19.95;;;1.80;;
51438;SDS011;38816;51.142;-0.974;2022-11-23T08:50:18;12.38;;;1.65;;
51438;SDS011;38816;51.142;-0.974;2022-11-23T08:52:44;15.38;;;2.10;;
51438;SDS011;38816;51.142;-0.974;2022-11-23T08:55:09;17.80;;;2.08;;
51438;SDS011;38816;51.142;-0.974;2022-11-23T08:57:35;13.10;;;2.00;;
51438;SDS011;38816;51.142;-0.974;2022-11-23T09:00:01;11.80;;;1.42;;
51438;SDS011;38816;51.142;-0.974;2022-11-23T09:02:28;10.13;;;1.38;;
51438;SDS011;38816;51.142;-0.974;2022-11-23T09:04:54;8.77;;;1.38;;
51438;SDS011;38816;51.142;-0.974;2022-11-23T09:07:19;16.58;;;1.80;;
51438;SDS011;38816;51.142;-0.974;2022-11-23T09:09:44;10.45;;;1.70;;
51438;SDS011;38816;51.142;-0.974;2022-11-23T09:12:10;15.10;;;1.98;;
51438;SDS011;38816;51.142;-0.974;2022-11-23T09:14:35;10.77;;;1.85;;
51438;SDS011;38816;51.142;-0.974;2022-11-23T09:17:01;12.02;;;1.90;;
51438;SDS011;38816;51.142;-0.974;2022-11-23T09:19:27;11.13;;;1.58;;
51438;SDS011;38816;51.142;-0.974;2022-11-23T09:21:52;18.65;;;1.85;;
51438;SDS011;38816;51.142;-0.974;2022-11-23T09:24:18;16.77;;;2.05;;
51438;SDS011;38816;51.142;-0.974;2022-11-23T09:26:44;15.70;;;1.45;;
51438;SDS011;38816;51.142;-0.974;2022-11-23T09:29:09;18.25;;;1.88;;
51438;SDS011;38816;51.142;-0.974;2022-11-23T09:31:34;11.15;;;1.73;;
51438;SDS011;38816;51.142;-0.974;2022-11-23T09:34:00;14.02;;;1.88;;
51438;SDS011;38816;51.142;-0.974;2022-11-23T09:36:26;20.48;;;2.08;;
51438;SDS011;38816;51.142;-0.974;2022-11-23T09:38:51;20.25;;;1.92;;
51438;SDS011;38816;51.142;-0.974;2022-11-23T09:44:01;14.63;;;1.92;;
51438;SDS011;38816;51.142;-0.974;2022-11-23T09:46:36;10.95;;;1.70;;
51438;SDS011;38816;51.142;-0.974;2022-11-23T09:49:17;20.35;;;2.35;;
51438;SDS011;38816;51.142;-0.974;2022-11-23T09:51:45;16.15;;;1.67;;
51438;SDS011;38816;51.142;-0.974;2022-11-23T09:57:08;19.13;;;1.63;;
51438;SDS011;38816;51.142;-0.974;2022-11-23T09:59:39;15.40;;;2.17;;
51438;SDS011;38816;51.142;-0.974;2022-11-23T10:02:21;10.55;;;1.65;;
51438;SDS011;38816;51.142;-0.974;2022-11-23T10:04:48;10.55;;;1.30;;
51438;SDS011;38816;51.142;-0.974;2022-11-23T10:09:44;13.68;;;1.90;;
51438;SDS011;38816;51.142;-0.974;2022-11-23T10:15:13;14.65;;;1.90;;
51438;SDS011;38816;51.142;-0.974;2022-11-23T10:26:15;10.20;;;1.58;;
51438;SDS011;38816;51.142;-0.974;2022-11-23T10:28:42;21.67;;;1.83;;
51438;SDS011;38816;51.142;-0.974;2022-11-23T10:31:17;15.90;;;2.30;;
51438;SDS011;38816;51.142;-0.974;2022-11-23T10:38:57;9.95;;;2.03;;
51438;SDS011;38816;51.142;-0.974;2022-11-23T10:41:24;17.55;;;2.55;;
51438;SDS011;38816;51.142;-0.974;2022-11-23T10:48:55;13.83;;;1.80;;
51438;SDS011;38816;51.142;-0.974;2022-11-23T10:51:32;17.35;;;2.35;;
51438;SDS011;38816;51.142;-0.974;2022-11-23T10:54:02;16.98;;;2.33;;
51438;SDS011;38816;51.142;-0.974;2022-11-23T10:56:30;19.77;;;3.00;;
51438;SDS011;38816;51.142;-0.974;2022-11-23T10:58:57;21.70;;;2.28;;
51438;SDS011;38816;51.142;-0.974;2022-11-23T11:01:24;13.02;;;2.00;;
51438;SDS011;38816;51.142;-0.974;2022-11-23T11:03:51;20.45;;;2.10;;
51438;SDS011;38816;51.142;-0.974;2022-11-23T11:06:28;17.85;;;2.35;;
51438;SDS011;38816;51.142;-0.974;2022-11-23T11:08:57;25.85;;;3.00;;
51438;SDS011;38816;51.142;-0.974;2022-11-23T11:11:29;27.90;;;3.90;;
51438;SDS011;38816;51.142;-0.974;2022-11-23T11:14:22;14.38;;;2.58;;
51438;SDS011;38816;51.142;-0.974;2022-11-23T11:16:51;20.55;;;2.50;;
51438;SDS011;38816;51.142;-0.974;2022-11-23T11:19:25;19.38;;;3.10;;
51438;SDS011;38816;51.142;-0.974;2022-11-23T11:24:19;23.33;;;2.65;;
51438;SDS011;38816;51.142;-0.974;2022-11-23T11:27:05;27.27;;;3.88;;
51438;SDS011;38816;51.142;-0.974;2022-11-23T11:29:38;20.70;;;2.70;;
51438;SDS011;38816;51.142;-0.974;2022-11-23T11:32:16;18.95;;;2.58;;
51438;SDS011;38816;51.142;-0.974;2022-11-23T11:34:48;19.23;;;2.53;;
51438;SDS011;38816;51.142;-0.974;2022-11-23T11:43:31;17.58;;;2.33;;
51438;SDS011;38816;51.142;-0.974;2022-11-23T11:45:45;13.23;;;2.58;;
51438;SDS011;38816;51.142;-0.974;2022-11-23T11:51:26;20.42;;;2.33;;
51438;SDS011;38816;51.142;-0.974;2022-11-23T11:53:58;18.63;;;2.83;;
51438;SDS011;38816;51.142;-0.974;2022-11-23T11:56:27;20.90;;;2.35;;
51438;SDS011;38816;51.142;-0.974;2022-11-23T11:59:08;19.55;;;2.85;;
51438;SDS011;38816;51.142;-0.974;2022-11-23T12:01:36;19.63;;;2.90;;
51438;SDS011;38816;51.142;-0.974;2022-11-23T12:04:31;21.02;;;2.83;;
51438;SDS011;38816;51.142;-0.974;2022-11-23T12:09:29;17.92;;;2.42;;
51438;SDS011;38816;51.142;-0.974;2022-11-23T12:11:58;12.65;;;1.90;;
51438;SDS011;38816;51.142;-0.974;2022-11-23T12:14:24;13.70;;;2.75;;
51438;SDS011;38816;51.142;-0.974;2022-11-23T12:22:35;14.68;;;2.65;;
51438;SDS011;38816;51.142;-0.974;2022-11-23T12:27:58;14.13;;;2.08;;
51438;SDS011;38816;51.142;-0.974;2022-11-23T12:33:30;15.95;;;2.08;;
51438;SDS011;38816;51.142;-0.974;2022-11-23T12:44:35;11.38;;;1.75;;
51438;SDS011;38816;51.142;-0.974;2022-11-23T12:50:13;15.00;;;2.08;;
51438;SDS011;38816;51.142;-0.974;2022-11-23T12:52:52;18.73;;;2.90;;
51438;SDS011;38816;51.142;-0.974;2022-11-23T12:55:36;8.10;;;1.63;;
51438;SDS011;38816;51.142;-0.974;2022-11-23T12:58:22;17.42;;;1.98;;
51438;SDS011;38816;51.142;-0.974;2022-11-23T13:00:54;13.27;;;2.60;;
51438;SDS011;38816;51.142;-0.974;2022-11-23T13:06:42;18.77;;;2.85;;
51438;SDS011;38816;51.142;-0.974;2022-11-23T13:23:46;12.95;;;2.10;;
51438;SDS011;38816;51.142;-0.974;2022-11-23T13:26:12;17.38;;;2.40;;
51438;SDS011;38816;51.142;-0.974;2022-11-23T13:28:38;20.55;;;2.83;;
51438;SDS011;38816;51.142;-0.974;2022-11-23T13:31:20;11.80;;;2.53;;
51438;SDS011;38816;51.142;-0.974;2022-11-23T13:33:49;15.73;;;3.58;;
51438;SDS011;38816;51.142;-0.974;2022-11-23T13:38:57;17.85;;;2.75;;
51438;SDS011;38816;51.142;-0.974;2022-11-23T13:49:43;12.35;;;2.03;;
51438;SDS011;38816;51.142;-0.974;2022-11-23T13:54:52;13.43;;;2.45;;
51438;SDS011;38816;51.142;-0.974;2022-11-23T13:57:26;14.90;;;2.28;;
51438;SDS011;38816;51.142;-0.974;2022-11-23T13:59:52;21.42;;;2.67;;
51438;SDS011;38816;51.142;-0.974;2022-11-23T14:02:28;12.70;;;2.15;;
51438;SDS011;38816;51.142;-0.974;2022-11-23T14:10:27;16.05;;;2.45;;
51438;SDS011;38816;51.142;-0.974;2022-11-23T14:12:59;17.63;;;2.22;;
51438;SDS011;38816;51.142;-0.974;2022-11-23T14:15:32;13.95;;;2.30;;
51438;SDS011;38816;51.142;-0.974;2022-11-23T14:34:56;12.25;;;1.75;;
51438;SDS011;38816;51.142;-0.974;2022-11-23T14:40:25;12.05;;;1.65;;
51438;SDS011;38816;51.142;-0.974;2022-11-23T14:42:55;13.02;;;2.00;;
51438;SDS011;38816;51.142;-0.974;2022-11-23T14:45:31;11.90;;;1.65;;
51438;SDS011;38816;51.142;-0.974;2022-11-23T14:48:20;11.55;;;1.65;;
51438;SDS011;38816;51.142;-0.974;2022-11-23T14:50:59;14.65;;;2.40;;
51438;SDS011;38816;51.142;-0.974;2022-11-23T14:53:31;15.68;;;1.83;;
51438;SDS011;38816;51.142;-0.974;2022-11-23T14:55:59;9.95;;;1.63;;
51438;SDS011;38816;51.142;-0.974;2022-11-23T14:58:26;13.77;;;2.05;;
51438;SDS011;38816;51.142;-0.974;2022-11-23T15:01:01;11.50;;;2.40;;
51438;SDS011;38816;51.142;-0.974;2022-11-23T15:03:28;22.27;;;3.30;;
51438;SDS011;38816;51.142;-0.974;2022-11-23T15:06:02;16.00;;;2.72;;
51438;SDS011;38816;51.142;-0.974;2022-11-23T15:08:36;21.90;;;2.88;;
51438;SDS011;38816;51.142;-0.974;2022-11-23T15:11:13;12.98;;;2.25;;
51438;SDS011;38816;51.142;-0.974;2022-11-23T15:13:43;18.35;;;2.22;;
51438;SDS011;38816;51.142;-0.974;2022-11-23T15:16:11;19.02;;;3.38;;
51438;SDS011;38816;51.142;-0.974;2022-11-23T15:18:37;25.70;;;3.80;;
51438;SDS011;38816;51.142;-0.974;2022-11-23T15:23:39;23.08;;;2.97;;
51438;SDS011;38816;51.142;-0.974;2022-11-23T15:26:28;15.07;;;2.72;;
51438;SDS011;38816;51.142;-0.974;2022-11-23T15:28:55;24.10;;;3.13;;
51438;SDS011;38816;51.142;-0.974;2022-11-23T15:33:46;26.17;;;2.83;;
51438;SDS011;38816;51.142;-0.974;2022-11-23T15:36:14;15.02;;;2.30;;
51438;SDS011;38816;51.142;-0.974;2022-11-23T15:38:45;18.00;;;3.17;;
51438;SDS011;38816;51.142;-0.974;2022-11-23T15:41:10;27.63;;;3.78;;
51438;SDS011;38816;51.142;-0.974;2022-11-23T15:43:36;23.38;;;3.10;;
51438;SDS011;38816;51.142;-0.974;2022-11-23T15:46:19;21.92;;;3.47;;
51438;SDS011;38816;51.142;-0.974;2022-11-23T15:48:49;14.30;;;2.97;;
51438;SDS011;38816;51.142;-0.974;2022-11-23T15:51:27;20.98;;;3.33;;
51438;SDS011;38816;51.142;-0.974;2022-11-23T15:53:57;19.73;;;3.30;;
51438;SDS011;38816;51.142;-0.974;2022-11-23T15:56:34;21.77;;;2.95;;
51438;SDS011;38816;51.142;-0.974;2022-11-23T15:59:21;23.60;;;2.88;;
51438;SDS011;38816;51.142;-0.974;2022-11-23T16:01:51;20.83;;;2.97;;
51438;SDS011;38816;51.142;-0.974;2022-11-23T16:04:31;28.40;;;3.13;;
51438;SDS011;38816;51.142;-0.974;2022-11-23T16:07:17;21.00;;;2.80;;
51438;SDS011;38816;51.142;-0.974;2022-11-23T16:09:49;19.40;;;3.40;;
51438;SDS011;38816;51.142;-0.974;2022-11-23T16:12:44;18.85;;;2.92;;
51438;SDS011;38816;51.142;-0.974;2022-11-23T16:20:45;21.70;;;3.25;;
51438;SDS011;38816;51.142;-0.974;2022-11-23T16:23:15;21.30;;;3.38;;
51438;SDS011;38816;51.142;-0.974;2022-11-23T16:25:45;16.02;;;3.20;;
51438;SDS011;38816;51.142;-0.974;2022-11-23T16:28:23;22.95;;;3.10;;
51438;SDS011;38816;51.142;-0.974;2022-11-23T16:30:55;18.95;;;3.92;;
51438;SDS011;38816;51.142;-0.974;2022-11-23T16:33:21;17.90;;;2.55;;
51438;SDS011;38816;51.142;-0.974;2022-11-23T16:35:48;26.38;;;3.08;;
51438;SDS011;38816;51.142;-0.974;2022-11-23T16:38:13;25.13;;;3.13;;
51438;SDS011;38816;51.142;-0.974;2022-11-23T16:40:39;23.42;;;2.63;;
51438;SDS011;38816;51.142;-0.974;2022-11-23T16:43:06;20.60;;;2.47;;
51438;SDS011;38816;51.142;-0.974;2022-11-23T16:45:32;17.75;;;2.42;;
51438;SDS011;38816;51.142;-0.974;2022-11-23T16:47:59;24.25;;;3.47;;
51438;SDS011;38816;51.142;-0.974;2022-11-23T16:50:26;20.08;;;2.83;;
51438;SDS011;38816;51.142;-0.974;2022-11-23T16:52:53;23.50;;;2.92;;
51438;SDS011;38816;51.142;-0.974;2022-11-23T16:55:19;25.80;;;3.05;;